createdAt,value
2023-05-12T00:00:59.938Z,6.35
2023-05-12T00:03:26.707Z,6.63
2023-05-12T00:05:53.887Z,7.00
2023-05-12T00:08:20.674Z,7.97
2023-05-12T00:10:47.426Z,8.50
2023-05-12T00:13:14.845Z,6.68
2023-05-12T00:15:41.675Z,6.15
2023-05-12T00:18:08.438Z,6.47
2023-05-12T00:20:35.247Z,6.55
2023-05-12T00:23:01.889Z,5.22
2023-05-12T00:25:28.661Z,5.80
2023-05-12T00:27:55.387Z,6.82
2023-05-12T00:30:22.475Z,7.35
2023-05-12T00:32:49.332Z,5.45
2023-05-12T00:35:17.345Z,5.40
2023-05-12T00:37:44.163Z,6.28
2023-05-12T00:40:11.267Z,5.60
2023-05-12T00:42:38.556Z,6.40
2023-05-12T00:45:06.237Z,5.55
2023-05-12T00:47:34.003Z,5.72
2023-05-12T00:50:00.780Z,6.90
2023-05-12T00:52:27.890Z,5.95
2023-05-12T00:54:55.197Z,6.00
2023-05-12T00:57:22.793Z,5.63
2023-05-12T00:59:49.791Z,5.95
2023-05-12T01:02:16.813Z,5.57
2023-05-12T01:04:43.732Z,6.85
2023-05-12T01:07:15.963Z,6.78
2023-05-12T01:09:42.791Z,6.93
2023-05-12T01:12:10.398Z,6.38
2023-05-12T01:14:38.332Z,6.25
2023-05-12T01:17:12.199Z,6.28
2023-05-12T01:20:02.372Z,6.75
2023-05-12T01:22:33.993Z,8.60
2023-05-12T01:25:07.768Z,7.40
2023-05-12T01:27:39.531Z,8.65
2023-05-12T01:30:08.680Z,7.40
2023-05-12T01:32:36.630Z,8.48
2023-05-12T01:35:04.598Z,8.88
2023-05-12T01:37:32.973Z,7.75
2023-05-12T01:40:02.642Z,9.18
2023-05-12T01:42:29.741Z,8.60
2023-05-12T01:44:57.249Z,6.93
2023-05-12T01:47:24.730Z,6.90
2023-05-12T01:50:04.276Z,7.93
2023-05-12T01:52:31.344Z,8.38
2023-05-12T01:54:58.025Z,7.45
2023-05-12T01:57:26.336Z,8.20
2023-05-12T01:59:56.998Z,7.63
2023-05-12T02:02:23.820Z,7.47
2023-05-12T02:04:50.620Z,8.68
2023-05-12T02:07:17.484Z,8.95
2023-05-12T02:09:45.478Z,8.60
2023-05-12T02:12:12.562Z,10.20
2023-05-12T02:14:39.343Z,9.50
2023-05-12T02:17:06.314Z,9.00
2023-05-12T02:19:33.205Z,8.85
2023-05-12T02:21:59.913Z,9.57
2023-05-12T02:24:26.720Z,8.68
2023-05-12T02:26:53.503Z,7.75
2023-05-12T02:29:20.481Z,7.88
2023-05-12T02:31:47.192Z,7.43
2023-05-12T02:34:16.680Z,7.13
2023-05-12T02:36:43.491Z,8.05
2023-05-12T02:39:13.506Z,7.38
2023-05-12T02:41:40.839Z,7.13
2023-05-12T02:44:07.621Z,6.05
2023-05-12T02:46:35.004Z,7.22
2023-05-12T02:49:01.851Z,7.22
2023-05-12T02:51:28.804Z,7.30
2023-05-12T02:53:55.778Z,6.60
2023-05-12T02:56:22.821Z,6.18
2023-05-12T02:58:49.689Z,6.38
2023-05-12T03:01:16.478Z,6.95
2023-05-12T03:03:43.473Z,7.25
2023-05-12T03:06:10.657Z,7.30
2023-05-12T03:08:37.368Z,7.03
2023-05-12T03:11:04.186Z,8.20
2023-05-12T03:13:30.966Z,8.55
2023-05-12T03:16:01.360Z,9.52
2023-05-12T03:18:30.581Z,9.63
2023-05-12T03:20:57.768Z,9.27
2023-05-12T03:23:25.038Z,10.85
2023-05-12T03:25:51.871Z,10.73
2023-05-12T03:28:18.783Z,10.95
2023-05-12T03:30:45.566Z,11.73
2023-05-12T03:33:12.357Z,11.00
2023-05-12T03:35:39.322Z,9.40
2023-05-12T03:38:06.253Z,9.05
2023-05-12T03:40:33.060Z,7.22
2023-05-12T03:42:59.852Z,6.30
2023-05-12T03:45:26.677Z,6.72
2023-05-12T03:47:53.626Z,7.22
2023-05-12T03:50:20.597Z,7.60
2023-05-12T03:52:47.555Z,6.57
2023-05-12T03:55:14.406Z,7.57
2023-05-12T03:57:42.706Z,6.60
2023-05-12T04:00:10.262Z,6.80
2023-05-12T04:02:39.892Z,6.80
2023-05-12T04:05:08.686Z,6.68
2023-05-12T04:07:35.820Z,6.15
2023-05-12T04:10:03.102Z,6.60
2023-05-12T04:12:30.042Z,7.10
2023-05-12T04:14:57.429Z,6.53
2023-05-12T04:17:24.543Z,5.75
2023-05-12T04:19:53.544Z,7.90
2023-05-12T04:22:20.897Z,6.78
2023-05-12T04:24:48.324Z,6.38
2023-05-12T04:27:15.254Z,6.68
2023-05-12T04:29:42.110Z,6.07
2023-05-12T04:32:09.233Z,6.43
2023-05-12T04:34:36.299Z,7.00
2023-05-12T04:37:03.872Z,6.20
2023-05-12T04:39:30.618Z,6.30
2023-05-12T04:41:59.815Z,6.50
2023-05-12T04:44:27.593Z,5.70
2023-05-12T04:46:56.431Z,4.80
2023-05-12T04:49:24.390Z,5.93
2023-05-12T04:51:51.161Z,7.25
2023-05-12T04:54:18.112Z,6.57
2023-05-12T04:56:44.980Z,6.57
2023-05-12T04:59:11.924Z,7.50
2023-05-12T05:01:39.493Z,7.82
2023-05-12T05:04:06.280Z,7.55
2023-05-12T05:06:33.143Z,7.50
2023-05-12T05:09:00.426Z,7.38
2023-05-12T05:11:27.368Z,7.53
2023-05-12T05:13:54.097Z,5.82
2023-05-12T05:16:20.936Z,5.22
2023-05-12T05:18:49.544Z,5.65
2023-05-12T05:21:16.475Z,5.53
2023-05-12T05:23:43.689Z,5.35
2023-05-12T05:26:10.996Z,4.72
2023-05-12T05:28:40.039Z,5.25
2023-05-12T05:31:08.228Z,5.22
2023-05-12T05:33:35.360Z,4.28
2023-05-12T05:36:03.472Z,4.78
2023-05-12T05:38:31.283Z,5.45
2023-05-12T05:40:58.090Z,6.20
2023-05-12T05:43:26.163Z,6.35
2023-05-12T05:45:55.855Z,6.80
2023-05-12T05:48:23.290Z,7.05
2023-05-12T05:50:51.954Z,6.50
2023-05-12T05:53:20.815Z,6.93
2023-05-12T05:55:48.802Z,7.28
2023-05-12T05:58:16.260Z,7.25
2023-05-12T06:00:44.046Z,8.50
2023-05-12T06:03:11.624Z,6.50
2023-05-12T06:05:38.596Z,7.15
2023-05-12T06:08:09.202Z,7.72
2023-05-12T06:10:35.987Z,7.53
2023-05-12T06:13:02.788Z,8.35
2023-05-12T06:15:29.569Z,8.60
2023-05-12T06:17:56.337Z,8.68
2023-05-12T06:20:25.166Z,11.45
2023-05-12T06:22:51.895Z,11.55
2023-05-12T06:25:18.779Z,11.07
2023-05-12T06:27:45.681Z,10.35
2023-05-12T06:30:15.624Z,10.40
2023-05-12T06:32:42.870Z,11.82
2023-05-12T06:35:09.787Z,11.45
2023-05-12T06:37:36.625Z,10.75
2023-05-12T06:40:03.785Z,10.85
2023-05-12T06:42:30.868Z,10.48
2023-05-12T06:44:57.541Z,10.85
2023-05-12T06:47:24.269Z,8.43
2023-05-12T06:49:51.228Z,9.48
2023-05-12T06:52:18.075Z,8.93
2023-05-12T06:54:44.706Z,8.60
2023-05-12T06:57:11.503Z,8.57
2023-05-12T06:59:38.160Z,7.60
2023-05-12T07:02:05.030Z,7.85
2023-05-12T07:04:36.059Z,8.40
2023-05-12T07:07:04.350Z,7.65
2023-05-12T07:09:31.100Z,7.63
2023-05-12T07:11:57.873Z,9.05
2023-05-12T07:14:24.824Z,8.20
2023-05-12T07:16:51.714Z,7.60
2023-05-12T07:19:18.432Z,4.45
2023-05-12T07:21:45.442Z,4.85
2023-05-12T07:24:12.342Z,5.05
2023-05-12T07:26:39.167Z,4.28
2023-05-12T07:29:07.355Z,2.55
2023-05-12T07:31:34.280Z,3.58
2023-05-12T07:34:01.081Z,3.97
2023-05-12T07:36:28.252Z,3.72
2023-05-12T07:38:55.100Z,3.08
2023-05-12T07:41:21.875Z,2.10
2023-05-12T07:43:48.634Z,1.50
2023-05-12T07:46:15.357Z,2.15
2023-05-12T07:48:42.453Z,1.77
2023-05-12T07:51:09.412Z,1.45
2023-05-12T07:53:36.585Z,1.70
2023-05-12T07:56:03.433Z,1.38
2023-05-12T07:58:30.102Z,1.60
2023-05-12T08:00:59.141Z,1.48
2023-05-12T08:03:26.232Z,1.52
2023-05-12T08:05:53.362Z,1.20
2023-05-12T08:08:20.142Z,1.98
2023-05-12T08:10:46.854Z,2.15
2023-05-12T08:13:13.568Z,1.67
2023-05-12T08:15:40.367Z,1.70
2023-05-12T08:18:07.224Z,2.28
2023-05-12T08:20:34.991Z,2.75
2023-05-12T08:23:01.720Z,3.10
2023-05-12T08:25:30.477Z,3.47
2023-05-12T08:27:59.330Z,2.88
2023-05-12T08:30:27.106Z,2.60
2023-05-12T08:32:55.264Z,3.03
2023-05-12T08:35:22.916Z,3.70
2023-05-12T08:37:49.848Z,3.03
2023-05-12T08:40:21.714Z,2.53
2023-05-12T08:42:55.955Z,2.45
2023-05-12T08:45:23.893Z,3.10
2023-05-12T08:47:51.617Z,2.70
2023-05-12T08:50:22.661Z,2.35
2023-05-12T08:52:50.069Z,2.20
2023-05-12T08:55:19.622Z,1.30
2023-05-12T08:57:48.545Z,1.05
2023-05-12T09:00:16.484Z,1.40
2023-05-12T09:02:53.293Z,1.20
2023-05-12T09:05:24.460Z,0.90
2023-05-12T09:07:53.799Z,0.80
2023-05-12T09:10:34.258Z,0.70
2023-05-12T09:13:17.438Z,0.57
2023-05-12T09:15:47.519Z,0.80
2023-05-12T09:18:14.403Z,0.60
2023-05-12T09:20:41.155Z,0.60
2023-05-12T09:23:19.273Z,0.60
2023-05-12T09:25:49.314Z,0.60
2023-05-12T09:28:16.147Z,0.80
2023-05-12T09:30:42.881Z,0.70
2023-05-12T09:33:14.056Z,0.90
2023-05-12T09:35:43.149Z,1.00
2023-05-12T09:38:11.923Z,0.88
2023-05-12T09:40:39.107Z,0.77
2023-05-12T09:43:07.352Z,0.77
2023-05-12T09:45:36.054Z,0.55
2023-05-12T09:48:10.204Z,0.70
2023-05-12T09:50:51.171Z,0.60
2023-05-12T09:53:19.818Z,1.02
2023-05-12T09:55:47.676Z,0.70
2023-05-12T09:58:20.489Z,0.60
2023-05-12T10:03:18.735Z,0.82
2023-05-12T10:05:51.701Z,0.80
2023-05-12T10:08:25.168Z,0.50
2023-05-12T10:10:53.822Z,0.60
2023-05-12T10:13:21.365Z,0.88
2023-05-12T10:15:49.907Z,0.60
2023-05-12T10:18:17.470Z,0.75
2023-05-12T10:20:46.107Z,1.05
2023-05-12T10:23:13.799Z,0.65
2023-05-12T10:25:44.511Z,0.68
2023-05-12T10:28:14.424Z,0.80
2023-05-12T10:30:43.106Z,0.80
2023-05-12T10:33:11.558Z,1.00
2023-05-12T10:35:40.064Z,0.70
2023-05-12T10:38:21.881Z,1.00
2023-05-12T10:41:01.355Z,0.80
2023-05-12T10:43:38.473Z,0.77
2023-05-12T10:46:22.465Z,0.80
2023-05-12T10:48:58.498Z,0.80
2023-05-12T10:51:35.022Z,0.70
2023-05-12T10:54:07.731Z,0.93
2023-05-12T10:56:38.343Z,0.80
2023-05-12T10:59:17.729Z,1.13
2023-05-12T11:02:05.398Z,1.13
2023-05-12T11:04:48.728Z,1.10
2023-05-12T11:07:17.898Z,0.60
2023-05-12T11:09:57.787Z,0.45
2023-05-12T11:12:28.836Z,0.53
2023-05-12T11:14:55.636Z,0.60
2023-05-12T11:17:22.589Z,0.65
2023-05-12T11:19:50.706Z,0.68
2023-05-12T11:22:20.066Z,0.60
2023-05-12T11:24:47.917Z,0.80
2023-05-12T11:27:16.694Z,0.63
2023-05-12T11:29:45.109Z,0.47
2023-05-12T11:32:12.571Z,0.43
2023-05-12T11:34:39.626Z,0.30
2023-05-12T11:37:09.241Z,0.50
2023-05-12T11:39:36.581Z,0.40
2023-05-12T11:42:12.987Z,0.50
2023-05-12T11:44:47.954Z,0.40
2023-05-12T11:47:16.242Z,0.30
2023-05-12T11:49:50.489Z,0.40
2023-05-12T11:52:19.609Z,0.30
2023-05-12T11:54:56.840Z,0.30
2023-05-12T11:57:28.454Z,0.40
2023-05-12T12:00:04.326Z,0.30
2023-05-12T12:02:35.935Z,0.25
2023-05-12T12:05:03.374Z,0.43
2023-05-12T12:07:31.774Z,0.30
2023-05-12T12:09:59.266Z,0.30
2023-05-12T12:12:26.149Z,0.32
2023-05-12T12:14:52.916Z,0.30
2023-05-12T12:17:19.601Z,0.30
2023-05-12T12:19:47.819Z,0.38
2023-05-12T12:22:14.554Z,0.30
2023-05-12T12:24:41.358Z,0.40
2023-05-12T12:27:08.126Z,0.30
2023-05-12T12:29:35.349Z,0.30
2023-05-12T12:32:02.013Z,0.30
2023-05-12T12:34:28.832Z,0.30
2023-05-12T12:36:55.944Z,0.40
2023-05-12T12:39:23.325Z,0.50
2023-05-12T12:41:50.283Z,0.40
2023-05-12T12:44:17.839Z,0.20
2023-05-12T12:46:44.632Z,0.30
2023-05-12T12:49:11.460Z,0.30
2023-05-12T12:51:45.669Z,0.40
2023-05-12T12:54:14.767Z,0.20
2023-05-12T12:56:42.658Z,0.40
2023-05-12T12:59:09.505Z,0.30
2023-05-12T13:01:36.256Z,0.47
2023-05-12T13:04:03.296Z,0.22
2023-05-12T13:06:30.186Z,0.40
2023-05-12T13:08:57.191Z,0.20
2023-05-12T13:11:23.943Z,0.30
2023-05-12T13:13:50.734Z,0.30
2023-05-12T13:16:17.705Z,0.40
2023-05-12T13:18:45.891Z,0.32
2023-05-12T13:21:12.659Z,0.50
2023-05-12T13:23:39.464Z,0.47
2023-05-12T13:26:06.255Z,0.30
2023-05-12T13:28:33.101Z,0.32
2023-05-12T13:30:59.844Z,0.60
2023-05-12T13:33:26.713Z,0.50
2023-05-12T13:35:55.124Z,0.38
2023-05-12T13:38:22.443Z,0.95
2023-05-12T13:40:49.231Z,0.50
2023-05-12T13:43:16.006Z,0.30
2023-05-12T13:45:42.877Z,0.60
2023-05-12T13:48:09.852Z,0.77
2023-05-12T13:50:36.669Z,0.52
2023-05-12T13:53:03.494Z,0.38
2023-05-12T13:55:30.192Z,0.60
2023-05-12T13:57:56.906Z,0.35
2023-05-12T14:00:24.493Z,0.57
2023-05-12T14:02:51.467Z,0.57
2023-05-12T14:05:18.346Z,0.40
2023-05-12T14:07:45.216Z,0.45
2023-05-12T14:10:12.292Z,0.45
2023-05-12T14:12:39.034Z,0.40
2023-05-12T14:15:23.627Z,0.70
2023-05-12T14:17:53.210Z,0.60
2023-05-12T14:20:20.004Z,0.43
2023-05-12T14:22:46.732Z,0.57
2023-05-12T14:25:13.463Z,0.52
2023-05-12T14:27:40.183Z,0.40
2023-05-12T14:30:07.662Z,0.50
2023-05-12T14:32:34.448Z,0.50
2023-05-12T14:35:01.235Z,0.60
2023-05-12T14:37:27.955Z,0.50
2023-05-12T14:39:56.747Z,0.32
2023-05-12T14:42:23.828Z,0.70
2023-05-12T14:44:50.595Z,0.55
2023-05-12T14:47:17.352Z,0.50
2023-05-12T14:49:45.594Z,0.65
2023-05-12T14:52:12.558Z,0.52
2023-05-12T14:54:39.378Z,0.60
2023-05-12T14:57:06.268Z,0.60
2023-05-12T14:59:33.046Z,0.60
2023-05-12T15:01:59.924Z,6.88
2023-05-12T15:04:27.586Z,0.90
2023-05-12T15:06:54.302Z,0.90
2023-05-12T15:09:20.989Z,0.45
2023-05-12T15:11:49.368Z,1.15
2023-05-12T15:14:16.065Z,0.50
2023-05-12T15:16:42.866Z,0.63
2023-05-12T15:19:09.723Z,0.50
2023-05-12T15:21:36.842Z,0.90
2023-05-12T15:24:03.988Z,8.95
2023-05-12T15:26:34.197Z,1.05
2023-05-12T15:29:02.425Z,0.63
2023-05-12T15:31:30.167Z,0.60
2023-05-12T15:33:57.868Z,0.60
2023-05-12T15:36:24.652Z,0.73
2023-05-12T15:38:51.407Z,0.70
2023-05-12T15:41:18.150Z,0.73
2023-05-12T15:43:44.863Z,0.70
2023-05-12T15:46:11.886Z,4.18
2023-05-12T15:48:39.604Z,0.60
2023-05-12T15:51:06.931Z,0.77
2023-05-12T15:53:34.249Z,0.47
2023-05-12T15:56:02.360Z,0.45
2023-05-12T15:58:29.695Z,0.50
2023-05-12T16:00:56.870Z,0.60
2023-05-12T16:03:23.827Z,0.70
2023-05-12T16:05:50.762Z,0.50
2023-05-12T16:08:17.792Z,0.60
2023-05-12T16:10:44.935Z,0.50
2023-05-12T16:13:11.601Z,0.75
2023-05-12T16:15:38.359Z,0.80
2023-05-12T16:18:07.530Z,0.60
2023-05-12T16:20:36.034Z,0.70
2023-05-12T16:23:02.793Z,0.43
2023-05-12T16:25:29.508Z,0.70
2023-05-12T16:27:56.153Z,0.50
2023-05-12T16:30:22.963Z,0.50
2023-05-12T16:32:49.847Z,0.63
2023-05-12T16:35:16.640Z,0.70
2023-05-12T16:37:43.394Z,0.40
2023-05-12T16:40:10.495Z,0.40
2023-05-12T16:42:37.232Z,0.73
2023-05-12T16:45:04.187Z,0.80
2023-05-12T16:47:31.486Z,0.50
2023-05-12T16:49:59.256Z,0.40
2023-05-12T16:52:27.025Z,0.60
2023-05-12T16:54:57.131Z,0.65
2023-05-12T16:57:24.239Z,0.98
2023-05-12T16:59:51.143Z,0.90
2023-05-12T17:02:18.632Z,0.90
2023-05-12T17:04:46.575Z,0.90
2023-05-12T17:07:13.870Z,0.70
2023-05-12T17:09:40.745Z,0.70
2023-05-12T17:12:08.505Z,0.95
2023-05-12T17:14:35.366Z,3.75
2023-05-12T17:17:02.506Z,1.35
2023-05-12T17:19:29.612Z,1.20
2023-05-12T17:21:56.568Z,1.10
2023-05-12T17:24:23.398Z,2.50
2023-05-12T17:26:50.520Z,1.05
2023-05-12T17:29:17.714Z,0.95
2023-05-12T17:31:44.590Z,1.63
2023-05-12T17:34:11.485Z,1.77
2023-05-12T17:36:38.276Z,1.33
2023-05-12T17:39:05.814Z,1.70
2023-05-12T17:41:32.623Z,3.63
2023-05-12T17:43:59.612Z,1.30
2023-05-12T17:46:26.386Z,1.08
2023-05-12T17:48:53.192Z,1.15
2023-05-12T17:51:19.889Z,1.17
2023-05-12T17:53:46.773Z,1.15
2023-05-12T17:56:13.467Z,1.38
2023-05-12T17:58:40.243Z,1.48
2023-05-12T18:01:06.954Z,1.40
2023-05-12T18:03:35.202Z,1.17
2023-05-12T18:06:02.476Z,1.10
2023-05-12T18:08:29.208Z,1.20
2023-05-12T18:10:55.878Z,1.67
2023-05-12T18:13:22.716Z,1.30
2023-05-12T18:15:50.087Z,1.50
2023-05-12T18:18:17.035Z,1.10
2023-05-12T18:20:43.860Z,1.13
2023-05-12T18:23:10.683Z,9.68
2023-05-12T18:25:37.528Z,1.70
2023-05-12T18:28:06.519Z,1.00
2023-05-12T18:30:33.608Z,1.10
2023-05-12T18:33:00.519Z,0.98
2023-05-12T18:35:27.393Z,1.48
2023-05-12T18:37:54.555Z,1.40
2023-05-12T18:40:21.343Z,1.17
2023-05-12T18:42:48.173Z,1.35
2023-05-12T18:45:15.759Z,1.10
2023-05-12T18:47:42.623Z,1.38
2023-05-12T18:50:09.730Z,1.38
2023-05-12T18:52:36.483Z,1.33
2023-05-12T18:55:03.417Z,1.00
2023-05-12T18:57:30.116Z,1.10
2023-05-12T18:59:56.859Z,0.95
2023-05-12T19:02:23.608Z,1.20
2023-05-12T19:04:50.562Z,1.20
2023-05-12T19:07:17.360Z,1.10
2023-05-12T19:09:44.314Z,1.10
2023-05-12T19:12:11.866Z,0.80
2023-05-12T19:14:40.170Z,0.50
2023-05-12T19:17:07.768Z,0.80
2023-05-12T19:19:34.884Z,0.82
2023-05-12T19:22:01.969Z,1.10
2023-05-12T19:24:30.021Z,1.00
2023-05-12T19:26:57.464Z,0.68
2023-05-12T19:29:24.327Z,0.88
2023-05-12T19:31:53.049Z,0.70
2023-05-12T19:34:20.200Z,18.67
2023-05-12T19:36:47.325Z,3.03
2023-05-12T19:39:14.116Z,1.92
2023-05-12T19:41:41.150Z,1.30
2023-05-12T19:44:08.021Z,0.95
2023-05-12T19:46:34.935Z,1.17
2023-05-12T19:49:03.595Z,1.05
2023-05-12T19:51:30.324Z,1.10
2023-05-12T19:53:59.053Z,0.70
2023-05-12T19:56:27.134Z,10.48
2023-05-12T19:58:55.174Z,3.35
2023-05-12T20:01:21.923Z,2.50
2023-05-12T20:03:48.666Z,1.02
2023-05-12T20:06:15.651Z,0.80
2023-05-12T20:08:42.344Z,0.93
2023-05-12T20:11:09.162Z,1.15
2023-05-12T20:13:35.828Z,0.90
2023-05-12T20:16:03.049Z,1.13
2023-05-12T20:18:29.937Z,0.77
2023-05-12T20:20:56.700Z,0.73
2023-05-12T20:23:23.364Z,1.20
2023-05-12T20:25:51.287Z,0.82
2023-05-12T20:28:18.026Z,0.77
2023-05-12T20:30:44.995Z,1.20
2023-05-12T20:33:11.712Z,0.82
2023-05-12T20:35:38.416Z,5.28
2023-05-12T20:38:05.089Z,3.30
2023-05-12T20:40:32.112Z,1.77
2023-05-12T20:42:58.943Z,1.40
2023-05-12T20:45:26.145Z,1.20
2023-05-12T20:47:52.900Z,1.15
2023-05-12T20:50:20.110Z,1.20
2023-05-12T20:52:47.479Z,1.30
2023-05-12T20:55:14.330Z,1.45
2023-05-12T20:57:41.371Z,1.20
2023-05-12T21:00:10.830Z,1.50
2023-05-12T21:02:38.052Z,1.48
2023-05-12T21:05:05.615Z,1.30
2023-05-12T21:07:33.282Z,1.63
2023-05-12T21:10:00.827Z,1.30
2023-05-12T21:12:28.000Z,1.77
2023-05-12T21:14:54.962Z,2.30
2023-05-12T21:17:22.339Z,1.52
2023-05-12T21:19:51.965Z,1.42
2023-05-12T21:22:18.692Z,1.90
2023-05-12T21:24:45.520Z,2.83
2023-05-12T21:27:12.330Z,1.77
2023-05-12T21:29:39.034Z,2.30
2023-05-12T21:32:06.380Z,2.00
2023-05-12T21:34:35.842Z,2.10
2023-05-12T21:37:02.928Z,2.10
2023-05-12T21:39:29.651Z,2.47
2023-05-12T21:41:56.379Z,1.98
2023-05-12T21:44:25.793Z,2.35
2023-05-12T21:46:55.268Z,2.60
2023-05-12T21:49:21.950Z,2.55
2023-05-12T21:51:55.588Z,2.17
2023-05-12T21:54:22.327Z,5.07
2023-05-12T21:56:50.558Z,4.55
2023-05-12T21:59:19.257Z,3.20
2023-05-12T22:01:46.044Z,2.70
2023-05-12T22:04:12.891Z,3.28
2023-05-12T22:06:39.622Z,2.70
2023-05-12T22:09:06.764Z,2.88
2023-05-12T22:11:33.728Z,2.65
2023-05-12T22:14:00.419Z,3.67
2023-05-12T22:16:40.827Z,2.53
2023-05-12T22:19:08.983Z,2.60
2023-05-12T22:21:36.069Z,2.70
2023-05-12T22:24:03.251Z,3.03
2023-05-12T22:26:30.003Z,3.55
2023-05-12T22:28:56.819Z,3.28
2023-05-12T22:31:23.713Z,3.63
2023-05-12T22:33:50.990Z,3.45
2023-05-12T22:36:17.810Z,3.80
2023-05-12T22:38:44.448Z,3.55
2023-05-12T22:41:11.870Z,3.33
2023-05-12T22:43:38.632Z,3.63
2023-05-12T22:46:07.658Z,2.95
2023-05-12T22:48:38.973Z,3.15
2023-05-12T22:51:06.499Z,4.03
2023-05-12T22:53:35.747Z,3.20
2023-05-12T22:56:03.363Z,4.03
2023-05-12T22:58:30.317Z,3.60
2023-05-12T23:00:57.247Z,3.63
2023-05-12T23:03:24.409Z,3.60
2023-05-12T23:05:51.117Z,4.60
2023-05-12T23:08:17.845Z,4.38
2023-05-12T23:10:44.621Z,4.65
2023-05-12T23:13:11.284Z,5.72
2023-05-12T23:15:38.217Z,5.13
2023-05-12T23:18:04.993Z,5.78
2023-05-12T23:20:32.158Z,6.43
2023-05-12T23:22:58.942Z,6.93
2023-05-12T23:25:25.682Z,7.43
2023-05-12T23:27:52.587Z,7.95
2023-05-12T23:30:19.436Z,7.85
2023-05-12T23:32:46.535Z,8.00
2023-05-12T23:35:13.282Z,8.38
2023-05-12T23:37:40.162Z,8.73
2023-05-12T23:40:07.566Z,9.27
2023-05-12T23:42:34.225Z,8.45
2023-05-12T23:45:01.043Z,7.63
2023-05-12T23:47:27.797Z,7.82
2023-05-12T23:49:54.528Z,10.43
2023-05-12T23:52:21.268Z,8.82
2023-05-12T23:54:48.047Z,9.70
2023-05-12T23:57:14.793Z,9.23
2023-05-12T23:59:41.527Z,8.55
